Time;durP1;ratioP1;P1;durP2;ratioP2;P2;SDS_P1;SDS_P2;PMS_P1;PMS_P2;Temp;Humidity;BMP_temperature;BMP_pressure;BME280_temperature;BME280_humidity;BME280_pressure;Samples;Min_cycle;Max_cycle;Signal;HPM_P1;HPM_P2
2020/12/23 00:00:15;;;;;;;4.53;1.10;;;13.00;99.90;;;;;;5120427;28;20024;-71
2020/12/23 00:02:42;;;;;;;5.97;1.38;;;13.00;99.90;;;;;;5120472;28;20395;-71
2020/12/23 00:05:14;;;;;;;4.25;1.65;;;13.10;99.90;;;;;;5120345;28;20422;-71
2020/12/23 00:07:40;;;;;;;9.32;1.52;;;13.10;99.90;;;;;;5120279;28;20162;-71
2020/12/23 00:10:06;;;;;;;5.05;1.27;;;13.10;99.90;;;;;;5120456;28;20019;-71
2020/12/23 00:12:36;;;;;;;6.78;1.45;;;13.00;99.90;;;;;;5120218;28;20046;-71
2020/12/23 00:15:05;;;;;;;7.47;1.80;;;13.00;99.90;;;;;;5120557;28;20015;-71
2020/12/23 00:17:31;;;;;;;3.63;1.20;;;13.10;99.90;;;;;;5120366;27;20484;-71
2020/12/23 00:19:56;;;;;;;5.22;1.08;;;13.10;99.90;;;;;;5119998;28;20061;-71
2020/12/23 00:22:22;;;;;;;7.22;3.72;;;13.00;99.90;;;;;;5117568;28;20031;-71
2020/12/23 00:24:48;;;;;;;7.45;2.13;;;13.00;99.90;;;;;;5099724;28;20044;-71
2020/12/23 00:27:14;;;;;;;6.13;1.33;;;13.10;99.90;;;;;;5114440;28;20031;-71
2020/12/23 00:29:40;;;;;;;11.10;2.35;;;13.00;99.90;;;;;;5120038;28;20062;-71
2020/12/23 00:32:06;;;;;;;7.88;1.30;;;13.00;99.90;;;;;;5119876;28;20027;-71
2020/12/23 00:34:33;;;;;;;5.30;1.25;;;13.10;99.90;;;;;;5120128;27;20076;-71
2020/12/23 00:36:59;;;;;;;10.02;2.60;;;13.00;99.90;;;;;;5119696;28;20023;-71
2020/12/23 00:39:25;;;;;;;8.32;1.92;;;13.10;99.90;;;;;;5119951;28;20030;-71
2020/12/23 00:41:51;;;;;;;4.75;1.48;;;13.00;99.90;;;;;;5119618;28;20020;-71
2020/12/23 00:44:17;;;;;;;4.55;1.05;;;13.10;99.90;;;;;;5119723;28;20499;-71
2020/12/23 00:46:44;;;;;;;9.23;2.40;;;13.10;99.90;;;;;;5119611;28;20119;-72
2020/12/23 00:49:10;;;;;;;4.88;1.40;;;13.10;99.90;;;;;;5118618;27;20161;-71
2020/12/23 00:51:36;;;;;;;5.60;1.88;;;13.10;99.90;;;;;;5118954;28;20102;-71
2020/12/23 00:54:02;;;;;;;6.28;1.45;;;13.10;99.90;;;;;;5119846;28;20519;-72
2020/12/23 00:56:28;;;;;;;8.02;1.35;;;13.00;99.90;;;;;;5119243;28;20035;-71
2020/12/23 00:58:54;;;;;;;6.72;1.27;;;13.00;99.90;;;;;;5119407;28;20534;-71
2020/12/23 01:01:20;;;;;;;6.57;1.23;;;13.10;99.90;;;;;;5119311;28;20046;-71
2020/12/23 01:03:46;;;;;;;7.93;1.80;;;13.00;99.90;;;;;;5119414;28;20023;-71
2020/12/23 01:06:15;;;;;;;4.55;1.15;;;13.00;99.90;;;;;;5119049;28;20023;-71
2020/12/23 01:08:42;;;;;;;4.38;1.00;;;13.00;99.90;;;;;;5119587;28;20024;-71
2020/12/23 01:11:10;;;;;;;12.38;2.10;;;13.00;99.90;;;;;;5119142;28;20020;-71
2020/12/23 01:13:36;;;;;;;5.95;1.42;;;13.00;99.90;;;;;;5118999;28;20107;-71
2020/12/23 01:16:03;;;;;;;8.18;1.55;;;13.00;99.90;;;;;;5119206;28;20471;-71
2020/12/23 01:18:29;;;;;;;4.43;1.08;;;13.20;99.90;;;;;;5119072;28;20023;-71
2020/12/23 01:20:55;;;;;;;5.32;1.15;;;13.10;99.90;;;;;;5120497;27;20020;-71
2020/12/23 01:23:21;;;;;;;4.45;1.20;;;13.20;99.90;;;;;;5130628;27;20049;-71
2020/12/23 01:25:54;;;;;;;7.72;1.45;;;13.10;99.90;;;;;;5118714;28;20472;-71
2020/12/23 01:28:20;;;;;;;2.97;0.70;;;13.10;99.90;;;;;;5118824;28;20019;-71
2020/12/23 01:30:47;;;;;;;5.13;1.30;;;13.20;99.90;;;;;;5118740;28;20114;-71
2020/12/23 01:33:13;;;;;;;8.55;1.30;;;13.20;99.90;;;;;;5118676;28;20061;-71
2020/12/23 01:35:39;;;;;;;4.57;1.20;;;13.10;99.90;;;;;;5118559;28;20027;-71
2020/12/23 01:38:05;;;;;;;8.32;1.30;;;13.20;99.90;;;;;;5118588;28;20051;-71
2020/12/23 01:40:32;;;;;;;5.18;1.27;;;13.10;99.90;;;;;;5118606;28;20020;-72
2020/12/23 01:42:58;;;;;;;5.57;1.45;;;13.10;99.90;;;;;;5118746;28;20038;-71
2020/12/23 01:45:24;;;;;;;3.13;0.90;;;13.10;99.90;;;;;;5118315;28;20024;-72
2020/12/23 01:47:54;;;;;;;2.15;0.73;;;13.20;99.90;;;;;;5118516;28;20028;-71
2020/12/23 01:50:21;;;;;;;5.05;0.90;;;13.20;99.90;;;;;;5117998;28;20063;-71
2020/12/23 01:52:47;;;;;;;3.42;0.98;;;13.20;99.90;;;;;;5118197;27;20055;-71
2020/12/23 01:55:13;;;;;;;1.33;0.80;;;13.20;99.90;;;;;;5118098;28;20030;-71
2020/12/23 01:57:39;;;;;;;8.27;1.10;;;13.20;99.90;;;;;;5118221;28;20476;-71
2020/12/23 02:00:06;;;;;;;10.38;1.23;;;13.20;99.90;;;;;;5118017;28;20094;-71
2020/12/23 02:02:33;;;;;;;3.00;1.10;;;13.30;99.90;;;;;;5118401;28;20023;-71
2020/12/23 02:05:07;;;;;;;5.10;1.15;;;13.30;99.90;;;;;;5118195;28;20027;-71
2020/12/23 02:07:34;;;;;;;6.78;1.98;;;13.30;99.90;;;;;;5117913;28;20430;-71
2020/12/23 02:10:03;;;;;;;3.90;0.82;;;13.20;99.90;;;;;;5117433;28;20024;-71
2020/12/23 02:12:29;;;;;;;4.28;1.00;;;13.20;99.90;;;;;;5118190;28;20387;-71
2020/12/23 02:14:56;;;;;;;4.85;1.10;;;13.30;99.90;;;;;;5117798;28;20020;-71
2020/12/23 02:17:22;;;;;;;4.28;1.05;;;13.40;99.90;;;;;;5116612;28;20839;-71
2020/12/23 02:19:52;;;;;;;2.45;0.80;;;13.30;99.90;;;;;;5117604;28;20135;-71
2020/12/23 02:22:28;;;;;;;2.55;0.80;;;13.30;99.90;;;;;;5130850;27;20037;-71
2020/12/23 02:24:54;;;;;;;5.28;1.00;;;13.30;99.90;;;;;;5117859;28;20028;-71
2020/12/23 02:27:22;;;;;;;7.38;1.40;;;13.30;99.90;;;;;;5117598;28;20601;-71
2020/12/23 02:29:50;;;;;;;7.90;1.73;;;13.20;99.90;;;;;;5117712;28;20054;-71
2020/12/23 02:32:16;;;;;;;1.25;0.85;;;13.30;99.90;;;;;;5117406;28;20407;-71
2020/12/23 02:34:43;;;;;;;5.15;0.90;;;13.30;99.90;;;;;;5117746;28;20030;-71
2020/12/23 02:37:10;;;;;;;5.72;0.85;;;13.30;99.90;;;;;;5117186;28;20019;-72
2020/12/23 02:39:36;;;;;;;2.40;1.00;;;13.20;99.90;;;;;;5117773;28;20102;-71
2020/12/23 02:42:04;;;;;;;3.28;0.60;;;13.30;99.90;;;;;;5115959;28;20031;-72
2020/12/23 02:44:30;;;;;;;1.33;0.80;;;13.40;99.90;;;;;;5117741;28;20024;-72
2020/12/23 02:47:07;;;;;;;1.73;0.88;;;13.30;99.90;;;;;;5117273;28;20024;-72
2020/12/23 02:49:33;;;;;;;4.60;1.13;;;13.30;99.90;;;;;;5117396;28;20423;-72
2020/12/23 02:51:59;;;;;;;2.85;0.90;;;13.30;99.90;;;;;;5117095;28;20068;-72
2020/12/23 02:54:24;;;;;;;3.58;1.42;;;13.30;99.90;;;;;;5115984;28;20106;-71
2020/12/23 02:56:51;;;;;;;2.78;1.00;;;13.20;99.90;;;;;;5117168;28;20032;-72
2020/12/23 02:59:17;;;;;;;2.80;0.98;;;13.20;99.90;;;;;;5117318;28;20045;-72
2020/12/23 03:01:43;;;;;;;1.85;1.20;;;13.20;99.90;;;;;;5117024;28;20023;-72
2020/12/23 03:04:09;;;;;;;2.17;0.90;;;13.20;99.90;;;;;;5117356;28;20027;-72
2020/12/23 03:06:35;;;;;;;3.65;1.60;;;13.20;99.90;;;;;;5116896;28;20028;-72
2020/12/23 03:09:04;;;;;;;1.98;1.00;;;13.20;99.90;;;;;;5117467;28;20028;-72
2020/12/23 03:11:30;;;;;;;2.38;1.00;;;13.20;99.90;;;;;;5117045;28;20046;-72
2020/12/23 03:13:56;;;;;;;2.42;0.75;;;13.10;99.90;;;;;;5115654;28;20020;-72
2020/12/23 03:16:21;;;;;;;1.27;0.70;;;13.10;99.90;;;;;;5117001;28;20035;-72
2020/12/23 03:18:47;;;;;;;4.28;0.68;;;13.20;99.90;;;;;;5117077;28;20044;-72
2020/12/23 03:21:13;;;;;;;2.33;0.75;;;13.20;99.90;;;;;;5112789;28;20044;-72
2020/12/23 03:23:39;;;;;;;3.75;0.70;;;13.20;99.90;;;;;;5100936;28;20094;-72
2020/12/23 03:26:05;;;;;;;2.75;0.88;;;13.20;99.90;;;;;;5105773;28;20023;-72
2020/12/23 03:28:32;;;;;;;4.10;0.60;;;13.20;99.90;;;;;;5121310;28;20024;-72
2020/12/23 03:30:59;;;;;;;9.60;1.10;;;13.20;99.90;;;;;;5121218;28;20027;-72
2020/12/23 03:33:25;;;;;;;6.22;0.90;;;13.30;99.90;;;;;;5121028;28;20023;-72
2020/12/23 03:35:51;;;;;;;7.45;2.15;;;13.20;99.90;;;;;;5120651;28;20100;-73
2020/12/23 03:38:17;;;;;;;3.10;0.95;;;13.20;99.90;;;;;;5119693;28;20020;-72
2020/12/23 03:40:43;;;;;;;4.57;1.02;;;13.30;99.90;;;;;;5121077;28;20395;-72
2020/12/23 03:43:08;;;;;;;7.82;1.50;;;13.20;99.90;;;;;;5119419;28;20023;-72
2020/12/23 03:45:34;;;;;;;5.32;1.45;;;13.20;99.90;;;;;;5120638;28;20032;-72
2020/12/23 03:48:00;;;;;;;5.20;1.42;;;13.20;99.90;;;;;;5121023;28;20023;-73
2020/12/23 03:50:26;;;;;;;11.98;1.70;;;13.20;99.90;;;;;;5119009;28;20034;-72
2020/12/23 03:52:52;;;;;;;8.13;1.45;;;13.20;99.90;;;;;;5119284;28;20535;-72
2020/12/23 03:55:18;;;;;;;7.65;1.42;;;13.20;99.90;;;;;;5120618;28;20027;-73
2020/12/23 03:57:43;;;;;;;8.55;2.53;;;13.20;99.90;;;;;;5120523;28;20384;-73
2020/12/23 04:00:11;;;;;;;7.50;2.08;;;13.20;99.90;;;;;;5120443;28;20024;-72
2020/12/23 04:02:37;;;;;;;10.05;2.45;;;13.20;99.90;;;;;;5120579;28;20479;-72
2020/12/23 04:05:04;;;;;;;9.50;1.52;;;13.10;99.90;;;;;;5120382;28;20373;-73
2020/12/23 04:07:30;;;;;;;9.05;1.50;;;13.10;99.90;;;;;;5119229;28;20019;-73
2020/12/23 04:09:56;;;;;;;7.32;1.63;;;13.10;99.90;;;;;;5120298;28;20505;-73
2020/12/23 04:12:22;;;;;;;6.40;1.23;;;13.20;99.90;;;;;;5120374;28;20015;-73
2020/12/23 04:14:48;;;;;;;7.07;2.20;;;13.10;99.90;;;;;;5120055;28;20079;-73
2020/12/23 04:17:13;;;;;;;5.32;1.45;;;13.10;99.90;;;;;;5120320;28;20058;-73
2020/12/23 04:19:39;;;;;;;6.65;1.35;;;13.00;99.90;;;;;;5119965;28;20040;-73
2020/12/23 04:22:05;;;;;;;8.85;1.63;;;13.10;99.90;;;;;;5131824;27;20473;-73
2020/12/23 04:24:31;;;;;;;7.00;1.35;;;13.10;99.90;;;;;;5121896;27;20088;-73
2020/12/23 04:26:57;;;;;;;9.88;1.38;;;13.00;99.90;;;;;;5120097;28;20030;-73
2020/12/23 04:29:23;;;;;;;6.95;1.23;;;13.10;99.90;;;;;;5119818;28;20031;-73
2020/12/23 04:31:49;;;;;;;11.00;1.20;;;13.10;99.90;;;;;;5118029;28;20031;-73
2020/12/23 04:34:15;;;;;;;4.35;1.38;;;13.10;99.90;;;;;;5119708;28;20038;-73
2020/12/23 04:36:41;;;;;;;9.02;2.78;;;12.90;99.90;;;;;;5119665;28;20015;-72
2020/12/23 04:39:07;;;;;;;10.00;2.42;;;13.10;99.90;;;;;;5119689;28;20031;-73
2020/12/23 04:41:34;;;;;;;10.45;1.73;;;13.00;99.90;;;;;;5119770;28;20049;-73
2020/12/23 04:44:01;;;;;;;11.40;2.22;;;13.10;99.90;;;;;;5119667;28;20153;-73
2020/12/23 04:46:33;;;;;;;17.25;2.15;;;13.00;99.90;;;;;;5118532;28;20031;-73
2020/12/23 04:49:00;;;;;;;10.75;2.08;;;13.00;99.90;;;;;;5119639;28;20024;-73
2020/12/23 04:51:30;;;;;;;13.48;1.60;;;12.90;99.90;;;;;;5119600;28;20023;-72
2020/12/23 04:53:57;;;;;;;12.48;1.70;;;13.00;99.90;;;;;;5119762;27;20106;-73
2020/12/23 04:56:28;;;;;;;14.18;2.33;;;13.00;99.90;;;;;;5119542;28;20065;-73
2020/12/23 04:58:58;;;;;;;9.68;2.78;;;13.00;99.90;;;;;;5119377;28;20043;-73
2020/12/23 05:01:25;;;;;;;14.43;2.00;;;13.00;99.90;;;;;;5117819;28;20121;-73
2020/12/23 05:03:56;;;;;;;10.93;2.28;;;12.90;99.90;;;;;;5119461;28;20428;-73
2020/12/23 05:06:23;;;;;;;9.55;1.63;;;12.90;99.90;;;;;;5119017;28;20024;-73
2020/12/23 05:08:50;;;;;;;6.07;2.72;;;12.90;99.90;;;;;;5119351;28;20024;-73
2020/12/23 05:11:17;;;;;;;10.93;2.38;;;12.90;99.90;;;;;;5119306;28;20089;-73
2020/12/23 05:13:43;;;;;;;12.15;1.83;;;13.00;99.90;;;;;;5118992;28;20030;-73
2020/12/23 05:16:21;;;;;;;8.10;1.85;;;12.90;99.90;;;;;;5118979;28;20012;-73
2020/12/23 05:18:48;;;;;;;11.52;2.53;;;12.90;99.90;;;;;;5117591;28;20035;-73
2020/12/23 05:21:16;;;;;;;9.80;1.75;;;12.90;99.90;;;;;;5123146;27;20090;-73
2020/12/23 05:23:46;;;;;;;8.55;1.63;;;12.80;99.90;;;;;;5126895;27;20024;-73
2020/12/23 05:26:13;;;;;;;7.43;2.35;;;12.90;99.90;;;;;;5118707;28;20020;-73
2020/12/23 05:28:40;;;;;;;7.63;1.50;;;12.90;99.90;;;;;;5118941;28;20115;-73
2020/12/23 05:31:08;;;;;;;13.40;2.72;;;12.90;99.90;;;;;;5118743;28;20077;-73
2020/12/23 05:33:35;;;;;;;11.57;1.83;;;12.90;99.90;;;;;;5118875;28;20039;-73
2020/12/23 05:36:12;;;;;;;7.85;1.65;;;12.90;99.90;;;;;;5118680;28;20074;-73
2020/12/23 05:38:38;;;;;;;7.88;1.55;;;12.80;99.90;;;;;;5118730;28;20052;-73
2020/12/23 05:41:13;;;;;;;10.13;2.25;;;12.90;99.90;;;;;;5118870;28;20038;-73
2020/12/23 05:43:39;;;;;;;9.65;2.15;;;12.90;99.90;;;;;;5117332;28;20039;-73
2020/12/23 05:46:07;;;;;;;7.15;1.75;;;12.80;99.90;;;;;;5117495;28;20031;-73
2020/12/23 05:48:35;;;;;;;14.80;1.77;;;13.00;99.90;;;;;;5118379;28;20035;-73
2020/12/23 05:51:03;;;;;;;8.13;1.80;;;12.90;99.90;;;;;;5116859;28;20061;-73
2020/12/23 05:53:30;;;;;;;13.32;3.22;;;12.90;99.90;;;;;;5116940;28;20042;-73
2020/12/23 05:55:56;;;;;;;9.90;2.17;;;12.90;99.90;;;;;;5117056;28;20022;-73
2020/12/23 05:58:36;;;;;;;11.38;2.42;;;12.90;99.90;;;;;;5116768;28;20084;-73
2020/12/23 06:01:07;;;;;;;10.52;1.77;;;12.90;99.90;;;;;;5116903;28;20020;-73
2020/12/23 06:03:58;;;;;;;7.13;1.63;;;12.90;99.90;;;;;;5118134;27;20095;-73
2020/12/23 06:06:28;;;;;;;11.20;1.63;;;12.90;99.90;;;;;;5117845;28;20024;-73
2020/12/23 06:09:07;;;;;;;6.15;1.75;;;12.90;99.90;;;;;;5118227;28;20028;-73
2020/12/23 06:11:32;;;;;;;9.90;1.73;;;12.90;99.90;;;;;;5117913;28;20055;-73
2020/12/23 06:14:17;;;;;;;8.60;2.20;;;12.90;99.90;;;;;;5116825;28;20019;-73
2020/12/23 06:16:48;;;;;;;7.63;1.90;;;12.90;99.90;;;;;;5118121;28;20083;-73
2020/12/23 06:19:26;;;;;;;6.93;1.85;;;12.80;99.90;;;;;;5117743;28;20040;-73
2020/12/23 06:21:57;;;;;;;6.50;1.80;;;12.90;99.90;;;;;;5116290;28;20403;-73
2020/12/23 06:24:26;;;;;;;8.90;1.92;;;12.80;99.90;;;;;;5099715;28;20409;-73
2020/12/23 06:26:55;;;;;;;11.25;1.83;;;12.80;99.90;;;;;;5109046;28;20065;-73
2020/12/23 06:29:24;;;;;;;10.63;2.38;;;12.90;99.90;;;;;;5117553;28;20261;-73
2020/12/23 06:32:01;;;;;;;9.05;2.15;;;12.90;99.90;;;;;;5116490;28;20037;-73
2020/12/23 06:34:34;;;;;;;15.23;2.33;;;12.90;99.90;;;;;;5117880;28;20024;-73
2020/12/23 06:37:23;;;;;;;9.30;2.83;;;12.90;99.90;;;;;;5117543;28;20099;-73
2020/12/23 06:39:49;;;;;;;12.85;2.10;;;12.90;99.90;;;;;;5117673;28;20015;-73
2020/12/23 06:42:16;;;;;;;15.48;3.00;;;12.80;99.90;;;;;;5116052;28;20028;-73
2020/12/23 06:44:41;;;;;;;14.15;2.00;;;12.90;99.90;;;;;;5117504;28;20387;-73
2020/12/23 06:47:09;;;;;;;15.05;3.15;;;12.80;99.90;;;;;;5117222;28;20023;-73
2020/12/23 06:49:43;;;;;;;12.18;3.05;;;12.90;99.90;;;;;;5117432;28;20042;-73
2020/12/23 06:52:33;;;;;;;13.07;3.47;;;12.90;99.90;;;;;;5117188;28;20411;-73
2020/12/23 06:55:04;;;;;;;16.40;2.53;;;12.90;99.90;;;;;;5106784;28;20403;-74
2020/12/23 06:57:39;;;;;;;14.20;2.97;;;12.90;99.90;;;;;;5117465;28;20023;-73
2020/12/23 07:00:13;;;;;;;14.45;2.75;;;12.80;99.90;;;;;;5116095;28;20437;-73
2020/12/23 07:02:38;;;;;;;15.43;2.95;;;12.80;99.90;;;;;;5115869;28;20047;-73
2020/12/23 07:05:04;;;;;;;14.05;3.95;;;12.90;99.90;;;;;;5116873;28;20031;-73
2020/12/23 07:07:37;;;;;;;24.75;3.42;;;12.80;99.90;;;;;;5117429;28;20016;-73
2020/12/23 07:10:16;;;;;;;17.70;2.70;;;12.80;99.90;;;;;;5117316;28;20032;-74
2020/12/23 07:12:46;;;;;;;20.02;4.30;;;12.80;99.90;;;;;;5116989;28;20084;-73
2020/12/23 07:15:15;;;;;;;22.42;3.15;;;12.70;99.90;;;;;;5115775;28;20031;-74
2020/12/23 07:17:44;;;;;;;19.25;3.50;;;12.80;99.90;;;;;;5117043;28;20105;-73
2020/12/23 07:20:12;;;;;;;13.65;2.92;;;12.80;99.90;;;;;;5116892;28;20499;-73
2020/12/23 07:22:38;;;;;;;22.65;3.00;;;12.80;99.90;;;;;;5129678;28;20031;-73
2020/12/23 07:25:04;;;;;;;22.20;3.22;;;12.70;99.90;;;;;;5117039;28;20506;-73
2020/12/23 07:27:32;;;;;;;16.25;3.40;;;12.80;99.90;;;;;;5116821;28;20020;-73
2020/12/23 07:30:07;;;;;;;16.52;4.18;;;12.70;99.90;;;;;;5117198;28;20024;-73
2020/12/23 07:32:33;;;;;;;25.50;4.82;;;12.70;99.90;;;;;;5116827;28;20095;-73
2020/12/23 07:35:05;;;;;;;24.77;4.00;;;12.70;99.90;;;;;;5115559;28;20023;-73
2020/12/23 07:37:38;;;;;;;21.52;4.15;;;12.70;99.90;;;;;;5115570;28;20028;-73
2020/12/23 07:40:13;;;;;;;14.90;3.55;;;12.70;99.90;;;;;;5116955;28;20387;-73
2020/12/23 07:42:39;;;;;;;17.23;4.05;;;12.70;99.90;;;;;;5116732;28;20123;-73
2020/12/23 07:45:05;;;;;;;24.17;2.97;;;12.70;99.90;;;;;;5116860;28;20064;-73
2020/12/23 07:47:30;;;;;;;23.25;3.30;;;12.70;99.90;;;;;;5117093;28;20028;-73
2020/12/23 07:50:01;;;;;;;12.25;3.00;;;12.70;99.90;;;;;;5115505;28;20019;-73
2020/12/23 07:52:28;;;;;;;16.70;3.17;;;12.70;99.90;;;;;;5116940;28;20500;-73
2020/12/23 07:54:53;;;;;;;14.00;3.00;;;12.70;99.90;;;;;;5115252;28;20095;-73
2020/12/23 07:57:29;;;;;;;13.75;3.00;;;12.70;99.90;;;;;;5115475;28;20478;-73
2020/12/23 08:00:07;;;;;;;12.13;3.47;;;12.70;99.90;;;;;;5116695;28;20019;-73
2020/12/23 08:02:34;;;;;;;16.13;2.85;;;12.60;99.90;;;;;;5116762;28;20034;-73
2020/12/23 08:05:00;;;;;;;18.65;2.97;;;12.60;99.90;;;;;;5116719;28;20027;-73
2020/12/23 08:07:26;;;;;;;16.90;4.10;;;12.70;99.90;;;;;;5118659;28;20019;-73
2020/12/23 08:09:53;;;;;;;17.73;3.58;;;12.70;99.90;;;;;;5120324;28;20031;-73
2020/12/23 08:12:20;;;;;;;24.98;3.92;;;12.60;99.90;;;;;;5120345;28;20024;-73
2020/12/23 08:14:46;;;;;;;31.55;4.22;;;12.70;99.90;;;;;;5109283;27;20422;-74
2020/12/23 08:17:22;;;;;;;17.95;3.53;;;12.60;99.90;;;;;;5112855;27;20753;-74
2020/12/23 08:20:08;;;;;;;25.23;4.90;;;12.60;99.90;;;;;;5117602;28;20131;-74
2020/12/23 08:22:35;;;;;;;19.83;3.47;;;12.60;99.90;;;;;;5132511;27;20023;-74
2020/12/23 08:25:06;;;;;;;14.98;2.92;;;12.60;99.90;;;;;;5119016;28;20085;-74
2020/12/23 08:27:33;;;;;;;16.35;4.97;;;12.60;99.90;;;;;;5102051;28;20110;-74
2020/12/23 08:30:01;;;;;;;14.15;3.00;;;12.70;99.90;;;;;;5119840;28;20028;-74
2020/12/23 08:32:33;;;;;;;12.55;3.05;;;12.80;99.90;;;;;;5118932;28;20489;-73
2020/12/23 08:35:01;;;;;;;16.30;4.13;;;12.70;99.90;;;;;;5118649;28;20054;-74
2020/12/23 08:37:28;;;;;;;18.83;3.67;;;12.70;99.90;;;;;;5119578;28;20107;-74
2020/12/23 08:39:58;;;;;;;18.23;3.53;;;12.60;99.90;;;;;;5119929;28;20023;-68
2020/12/23 08:42:25;;;;;;;17.10;4.50;;;12.70;99.90;;;;;;5118200;28;20507;-74
2020/12/23 08:44:54;;;;;;;17.58;5.15;;;12.70;99.90;;;;;;5118563;28;20088;-74
2020/12/23 08:47:32;;;;;;;15.65;2.95;;;12.70;99.90;;;;;;5120556;28;20070;-74
2020/12/23 08:50:00;;;;;;;16.67;2.65;;;12.70;99.90;;;;;;5119408;28;20035;-74
2020/12/23 08:52:26;;;;;;;16.67;3.50;;;12.70;99.90;;;;;;5119848;28;20024;-73
2020/12/23 08:54:53;;;;;;;12.73;2.38;;;12.60;99.90;;;;;;5119355;28;20425;-73
2020/12/23 08:57:27;;;;;;;12.50;2.72;;;12.50;99.90;;;;;;5119592;28;20058;-74
2020/12/23 08:59:55;;;;;;;21.45;4.05;;;12.50;99.90;;;;;;5119417;28;20027;-73
2020/12/23 09:02:22;;;;;;;19.13;3.88;;;12.40;99.90;;;;;;5118249;28;20083;-73
2020/12/23 09:04:48;;;;;;;13.70;3.08;;;12.40;99.90;;;;;;5119336;28;20027;-74
2020/12/23 09:07:21;;;;;;;13.73;3.63;;;12.50;99.90;;;;;;5119157;28;20027;-74
2020/12/23 09:09:47;;;;;;;25.45;5.18;;;12.40;99.90;;;;;;5119095;28;20503;-74
2020/12/23 09:12:20;;;;;;;18.42;3.30;;;12.50;99.90;;;;;;5119292;28;20028;-74
2020/12/23 09:14:46;;;;;;;20.05;4.18;;;12.50;99.90;;;;;;5118765;28;20024;-74
2020/12/23 09:17:22;;;;;;;23.50;3.78;;;12.40;99.90;;;;;;5119074;28;20028;-74
2020/12/23 09:20:05;;;;;;;19.48;3.90;;;12.50;99.90;;;;;;5118789;28;20384;-74
2020/12/23 09:22:46;;;;;;;15.65;3.80;;;12.50;99.90;;;;;;5119709;27;20510;-74
2020/12/23 09:25:26;;;;;;;23.42;3.88;;;12.50;99.90;;;;;;5119016;28;20016;-74
2020/12/23 09:27:56;;;;;;;24.45;3.50;;;12.50;99.90;;;;;;5118689;28;20028;-74
2020/12/23 09:30:48;;;;;;;24.08;4.45;;;12.40;99.90;;;;;;5118765;27;20039;-74
2020/12/23 09:33:19;;;;;;;18.95;3.30;;;12.40;99.90;;;;;;5118665;28;20043;-73
2020/12/23 09:35:47;;;;;;;25.58;6.03;;;12.30;99.90;;;;;;5118443;28;20022;-74
2020/12/23 09:38:14;;;;;;;20.13;5.47;;;12.30;99.90;;;;;;5118742;28;20059;-74
2020/12/23 09:40:43;;;;;;;13.85;3.35;;;12.50;99.90;;;;;;5118436;27;20020;-73
2020/12/23 09:43:12;;;;;;;21.45;5.35;;;12.60;99.90;;;;;;5118465;28;20364;-74
2020/12/23 09:45:38;;;;;;;20.88;3.47;;;12.50;99.90;;;;;;5118401;28;20023;-73
2020/12/23 09:48:04;;;;;;;28.98;5.20;;;12.50;99.90;;;;;;5118480;28;20024;-74
2020/12/23 09:50:30;;;;;;;19.35;5.22;;;12.60;99.90;;;;;;5118164;28;20019;-73
2020/12/23 09:52:56;;;;;;;15.68;3.20;;;12.60;99.90;;;;;;5116964;28;20399;-73
2020/12/23 09:55:22;;;;;;;17.85;3.20;;;12.70;99.90;;;;;;5118274;28;20091;-73
2020/12/23 09:57:48;;;;;;;18.88;4.18;;;12.70;99.90;;;;;;5116822;28;20149;-73
2020/12/23 10:00:14;;;;;;;17.05;3.55;;;12.60;99.90;;;;;;5118165;28;20024;-73
2020/12/23 10:02:40;;;;;;;21.02;5.88;;;12.60;99.90;;;;;;5118460;28;20024;-74
2020/12/23 10:05:05;;;;;;;19.70;3.88;;;12.70;99.90;;;;;;5117712;28;20048;-74
2020/12/23 10:07:31;;;;;;;19.33;4.07;;;12.70;99.90;;;;;;5117988;28;20526;-74
2020/12/23 10:09:57;;;;;;;14.82;5.35;;;12.70;99.90;;;;;;5116780;28;20026;-74
2020/12/23 10:12:23;;;;;;;16.27;3.50;;;12.80;99.90;;;;;;5117984;28;20449;-73
2020/12/23 10:14:52;;;;;;;19.20;3.22;;;12.70;99.90;;;;;;5117566;28;20023;-73
2020/12/23 10:17:18;;;;;;;14.73;3.83;;;12.70;99.90;;;;;;5117906;28;20046;-73
2020/12/23 10:19:45;;;;;;;16.52;4.05;;;12.80;99.90;;;;;;5117754;28;20515;-73
2020/12/23 10:22:11;;;;;;;15.32;3.20;;;12.60;99.90;;;;;;5130224;27;20023;-73
2020/12/23 10:24:37;;;;;;;17.15;3.80;;;12.50;99.90;;;;;;5118041;27;20047;-73
2020/12/23 10:27:04;;;;;;;21.02;3.90;;;12.40;99.90;;;;;;5116324;28;20057;-73
2020/12/23 10:29:29;;;;;;;11.20;3.45;;;12.30;99.90;;;;;;5117243;28;20028;-66
2020/12/23 10:31:56;;;;;;;17.95;3.63;;;12.40;99.90;;;;;;5117586;28;20020;-78
2020/12/23 10:34:21;;;;;;;17.20;3.58;;;12.40;99.90;;;;;;5116363;28;20461;-78
2020/12/23 10:36:48;;;;;;;20.67;4.05;;;12.80;99.90;;;;;;5117286;28;20012;-78
2020/12/23 10:39:17;;;;;;;16.15;3.80;;;14.00;99.90;;;;;;5117444;28;20080;-77
2020/12/23 10:41:50;;;;;;;14.73;3.63;;;14.50;99.90;;;;;;5109325;27;20069;-78
2020/12/23 10:44:16;;;;;;;16.17;3.72;;;14.10;99.90;;;;;;5103034;28;20028;-79
2020/12/23 10:46:42;;;;;;;17.88;5.55;;;13.40;99.90;;;;;;5110743;27;20016;-79
2020/12/23 10:49:07;;;;;;;27.50;4.63;;;13.00;99.90;;;;;;5097073;28;20031;-78
2020/12/23 10:51:33;;;;;;;21.85;3.65;;;12.70;99.90;;;;;;5096605;28;20028;-78
2020/12/23 10:53:59;;;;;;;13.65;4.15;;;12.60;99.90;;;;;;5097183;28;20032;-79
2020/12/23 10:56:25;;;;;;;24.25;3.30;;;12.60;99.90;;;;;;5097101;28;20422;-79
2020/12/23 10:58:51;;;;;;;15.90;2.97;;;12.60;99.90;;;;;;5096882;28;20023;-79
2020/12/23 11:01:20;;;;;;;10.43;2.88;;;12.60;99.90;;;;;;5108869;28;20019;-78
2020/12/23 11:03:46;;;;;;;17.58;3.13;;;12.60;99.90;;;;;;5096847;28;20028;-78
2020/12/23 11:06:15;;;;;;;13.45;2.58;;;12.60;99.90;;;;;;5096481;28;20077;-77
2020/12/23 11:08:42;;;;;;;13.52;3.47;;;12.70;99.90;;;;;;5096738;28;20028;-78
2020/12/23 11:11:12;;;;;;;16.17;3.35;;;12.70;99.90;;;;;;5096528;28;20031;-78
2020/12/23 11:13:39;;;;;;;11.63;2.55;;;12.60;99.90;;;;;;5102954;28;20028;-77
2020/12/23 11:16:05;;;;;;;11.70;2.78;;;12.80;99.90;;;;;;5095026;28;20032;-78
2020/12/23 11:18:31;;;;;;;10.85;2.17;;;13.60;99.90;;;;;;5096539;28;20024;-77
2020/12/23 11:20:57;;;;;;;12.35;3.08;;;14.80;99.90;;;;;;5100823;28;20039;-78
2020/12/23 11:23:27;;;;;;;11.50;2.60;;;15.30;99.90;;;;;;5127785;27;20031;-75
2020/12/23 11:25:55;;;;;;;12.40;3.58;;;16.20;99.90;;;;;;5116838;28;20012;-78
2020/12/23 11:28:21;;;;;;;15.35;3.08;;;15.90;99.90;;;;;;5106385;28;20511;-77
2020/12/23 11:30:48;;;;;;;17.55;3.22;;;16.10;99.90;;;;;;5113929;28;20487;-77
2020/12/23 11:33:15;;;;;;;21.17;4.43;;;16.30;99.90;;;;;;5115882;28;20028;-77
2020/12/23 11:35:41;;;;;;;18.75;4.20;;;16.50;99.90;;;;;;5105700;28;20020;-77
2020/12/23 11:38:08;;;;;;;9.98;2.95;;;16.30;99.90;;;;;;5096532;28;20027;-77
2020/12/23 11:40:34;;;;;;;13.70;2.85;;;16.50;99.90;;;;;;5096200;28;20584;-78
2020/12/23 11:43:00;;;;;;;19.70;3.30;;;16.60;99.90;;;;;;5099579;28;20036;-73
2020/12/23 11:45:26;;;;;;;17.63;5.50;;;16.80;99.90;;;;;;5098877;28;20024;-70
2020/12/23 11:47:52;;;;;;;13.35;3.58;;;16.30;99.90;;;;;;5099591;28;20464;-69
2020/12/23 11:50:18;;;;;;;13.27;3.72;;;15.90;99.90;;;;;;5100020;28;20016;-69
2020/12/23 11:52:44;;;;;;;13.30;3.55;;;15.70;99.90;;;;;;5100343;28;20039;-70
2020/12/23 11:55:10;;;;;;;15.75;4.07;;;15.30;99.90;;;;;;5100221;28;20027;-70
2020/12/23 11:57:38;;;;;;;18.50;3.30;;;14.30;99.90;;;;;;5100276;28;20024;-70
2020/12/23 12:00:07;;;;;;;12.20;3.55;;;13.90;99.90;;;;;;5100258;28;20028;-70
2020/12/23 12:02:33;;;;;;;20.17;3.92;;;13.40;99.90;;;;;;5100294;28;20065;-70
2020/12/23 12:04:58;;;;;;;13.75;3.25;;;13.30;99.90;;;;;;5100007;28;20024;-70
2020/12/23 12:07:24;;;;;;;18.05;3.60;;;12.90;99.90;;;;;;5100200;28;20028;-70
2020/12/23 12:09:50;;;;;;;12.88;2.92;;;12.60;99.90;;;;;;5099952;28;20028;-69
2020/12/23 12:12:16;;;;;;;16.85;4.25;;;12.50;99.90;;;;;;5099879;28;20430;-69
2020/12/23 12:14:42;;;;;;;14.45;3.65;;;12.40;99.90;;;;;;5099613;28;20016;-69
2020/12/23 12:17:09;;;;;;;15.48;3.42;;;12.20;99.90;;;;;;5100069;28;20052;-69
2020/12/23 12:19:34;;;;;;;13.55;2.88;;;12.20;99.90;;;;;;5099610;28;20048;-77
2020/12/23 12:22:00;;;;;;;17.02;2.60;;;12.90;99.90;;;;;;5122139;27;20034;-69
2020/12/23 12:24:26;;;;;;;11.80;2.50;;;13.60;99.90;;;;;;5121646;27;20020;-71
2020/12/23 12:26:52;;;;;;;17.25;3.28;;;13.60;99.90;;;;;;5120099;28;20031;-69
2020/12/23 12:29:17;;;;;;;10.82;3.42;;;13.30;99.90;;;;;;5119824;28;20565;-69
2020/12/23 12:31:45;;;;;;;22.27;4.45;;;13.00;99.90;;;;;;5120184;28;20031;-68
2020/12/23 12:34:11;;;;;;;14.35;3.85;;;12.60;99.90;;;;;;5119834;28;20027;-69
2020/12/23 12:36:37;;;;;;;22.20;4.65;;;12.50;99.90;;;;;;5119812;28;20107;-69
2020/12/23 12:39:03;;;;;;;15.88;2.80;;;12.70;99.90;;;;;;5119793;28;20193;-68
2020/12/23 12:41:29;;;;;;;17.20;3.45;;;13.10;99.90;;;;;;5120093;28;20464;-68
2020/12/23 12:43:56;;;;;;;15.93;3.67;;;13.40;99.90;;;;;;5119640;28;20107;-69